sensor_id;sensor_type;location;lat;lon;timestamp;pressure;altitude;pressure_sealevel;temperature;humidity
11345;BME280;5727;42.600;23.028;2023-05-12T00:00:45;93849.44;;;9.34;100.00
11345;BME280;5727;42.600;23.028;2023-05-12T00:03:12;93856.97;;;9.36;100.00
11345;BME280;5727;42.600;23.028;2023-05-12T00:05:39;93859.44;;;9.41;100.00
11345;BME280;5727;42.600;23.028;2023-05-12T00:08:07;93858.84;;;9.35;100.00
11345;BME280;5727;42.600;23.028;2023-05-12T00:10:33;93862.97;;;9.36;100.00
11345;BME280;5727;42.600;23.028;2023-05-12T00:13:01;93852.69;;;9.31;100.00
11345;BME280;5727;42.600;23.028;2023-05-12T00:15:28;93854.34;;;9.36;100.00
11345;BME280;5727;42.600;23.028;2023-05-12T00:17:54;93849.13;;;9.36;100.00
11345;BME280;5727;42.600;23.028;2023-05-12T00:20:21;93849.00;;;9.32;100.00
11345;BME280;5727;42.600;23.028;2023-05-12T00:22:48;93847.47;;;9.31;100.00
11345;BME280;5727;42.600;23.028;2023-05-12T00:25:16;93850.22;;;9.35;100.00
11345;BME280;5727;42.600;23.028;2023-05-12T00:27:43;93851.25;;;9.42;100.00
11345;BME280;5727;42.600;23.028;2023-05-12T00:30:10;93847.25;;;9.45;100.00
11345;BME280;5727;42.600;23.028;2023-05-12T00:32:37;93846.47;;;9.53;100.00
11345;BME280;5727;42.600;23.028;2023-05-12T00:35:04;93849.09;;;9.53;100.00
11345;BME280;5727;42.600;23.028;2023-05-12T00:37:31;93844.81;;;9.69;100.00
11345;BME280;5727;42.600;23.028;2023-05-12T00:39:58;93845.28;;;9.71;100.00
11345;BME280;5727;42.600;23.028;2023-05-12T00:42:26;93849.59;;;9.67;100.00
11345;BME280;5727;42.600;23.028;2023-05-12T00:44:53;93845.28;;;9.71;100.00
11345;BME280;5727;42.600;23.028;2023-05-12T00:47:19;93853.13;;;9.71;100.00
11345;BME280;5727;42.600;23.028;2023-05-12T00:49:46;93848.81;;;9.75;100.00
11345;BME280;5727;42.600;23.028;2023-05-12T00:52:13;93850.66;;;9.74;100.00
11345;BME280;5727;42.600;23.028;2023-05-12T00:54:41;93851.88;;;9.77;100.00
11345;BME280;5727;42.600;23.028;2023-05-12T00:57:09;93851.69;;;9.82;100.00
11345;BME280;5727;42.600;23.028;2023-05-12T00:59:37;93849.03;;;9.90;100.00
11345;BME280;5727;42.600;23.028;2023-05-12T01:02:04;93849.94;;;9.94;100.00
11345;BME280;5727;42.600;23.028;2023-05-12T01:04:32;93852.66;;;9.98;100.00
11345;BME280;5727;42.600;23.028;2023-05-12T01:07:03;93848.84;;;9.95;100.00
11345;BME280;5727;42.600;23.028;2023-05-12T01:09:34;93857.19;;;9.89;100.00
11345;BME280;5727;42.600;23.028;2023-05-12T01:12:01;93856.88;;;9.90;100.00
11345;BME280;5727;42.600;23.028;2023-05-12T01:14:27;93850.53;;;9.91;100.00
11345;BME280;5727;42.600;23.028;2023-05-12T01:16:59;93854.50;;;9.97;100.00
11345;BME280;5727;42.600;23.028;2023-05-12T01:19:39;93855.03;;;9.91;100.00
11345;BME280;5727;42.600;23.028;2023-05-12T01:22:06;93850.69;;;9.95;100.00
11345;BME280;5727;42.600;23.028;2023-05-12T01:24:36;93839.34;;;9.91;100.00
11345;BME280;5727;42.600;23.028;2023-05-12T01:27:06;93848.38;;;9.93;100.00
11345;BME280;5727;42.600;23.028;2023-05-12T01:29:34;93846.34;;;9.99;100.00
11345;BME280;5727;42.600;23.028;2023-05-12T01:32:01;93853.38;;;10.07;100.00
11345;BME280;5727;42.600;23.028;2023-05-12T01:34:28;93842.31;;;10.10;100.00
11345;BME280;5727;42.600;23.028;2023-05-12T01:36:55;93849.34;;;10.18;100.00
11345;BME280;5727;42.600;23.028;2023-05-12T01:39:22;93846.84;;;10.22;100.00
11345;BME280;5727;42.600;23.028;2023-05-12T01:41:48;93847.31;;;10.24;100.00
11345;BME280;5727;42.600;23.028;2023-05-12T01:44:16;93839.94;;;10.17;100.00
11345;BME280;5727;42.600;23.028;2023-05-12T01:46:43;93837.09;;;10.10;100.00
11345;BME280;5727;42.600;23.028;2023-05-12T01:49:10;93842.00;;;10.03;100.00
11345;BME280;5727;42.600;23.028;2023-05-12T01:51:36;93831.28;;;9.96;100.00
11345;BME280;5727;42.600;23.028;2023-05-12T01:54:03;93841.44;;;9.97;100.00
11345;BME280;5727;42.600;23.028;2023-05-12T01:56:30;93832.38;;;9.95;100.00
11345;BME280;5727;42.600;23.028;2023-05-12T01:58:57;93830.38;;;9.92;100.00
11345;BME280;5727;42.600;23.028;2023-05-12T02:01:25;93827.19;;;9.86;100.00
11345;BME280;5727;42.600;23.028;2023-05-12T02:03:53;93830.06;;;9.93;100.00
11345;BME280;5727;42.600;23.028;2023-05-12T02:06:19;93831.03;;;9.89;100.00
11345;BME280;5727;42.600;23.028;2023-05-12T02:08:46;93828.88;;;9.91;100.00
11345;BME280;5727;42.600;23.028;2023-05-12T02:11:14;93833.44;;;9.94;100.00
11345;BME280;5727;42.600;23.028;2023-05-12T02:13:41;93832.84;;;9.97;100.00
11345;BME280;5727;42.600;23.028;2023-05-12T02:16:09;93833.69;;;10.01;100.00
11345;BME280;5727;42.600;23.028;2023-05-12T02:18:37;93836.16;;;10.06;100.00
11345;BME280;5727;42.600;23.028;2023-05-12T02:21:04;93835.06;;;10.07;100.00
11345;BME280;5727;42.600;23.028;2023-05-12T02:23:31;93844.28;;;10.13;100.00
11345;BME280;5727;42.600;23.028;2023-05-12T02:25:57;93837.97;;;10.14;100.00
11345;BME280;5727;42.600;23.028;2023-05-12T02:28:24;93835.16;;;10.19;100.00
11345;BME280;5727;42.600;23.028;2023-05-12T02:30:51;93843.00;;;10.19;100.00
11345;BME280;5727;42.600;23.028;2023-05-12T02:33:19;93844.13;;;10.18;100.00
11345;BME280;5727;42.600;23.028;2023-05-12T02:35:48;93844.13;;;10.18;100.00
11345;BME280;5727;42.600;23.028;2023-05-12T02:38:15;93833.00;;;10.21;100.00
11345;BME280;5727;42.600;23.028;2023-05-12T02:40:42;93837.00;;;10.19;100.00
11345;BME280;5727;42.600;23.028;2023-05-12T02:43:08;93837.09;;;10.10;100.00
11345;BME280;5727;42.600;23.028;2023-05-12T02:45:35;93836.66;;;9.99;100.00
11345;BME280;5727;42.600;23.028;2023-05-12T02:48:02;93837.22;;;10.05;100.00
11345;BME280;5727;42.600;23.028;2023-05-12T02:50:29;93824.91;;;10.05;100.00
11345;BME280;5727;42.600;23.028;2023-05-12T02:52:57;93835.81;;;10.07;100.00
11345;BME280;5727;42.600;23.028;2023-05-12T02:55:24;93838.19;;;10.00;100.00
11345;BME280;5727;42.600;23.028;2023-05-12T02:57:51;93842.69;;;9.91;100.00
11345;BME280;5727;42.600;23.028;2023-05-12T03:00:18;93848.25;;;9.90;100.00
11345;BME280;5727;42.600;23.028;2023-05-12T03:02:45;93847.53;;;9.81;100.00
11345;BME280;5727;42.600;23.028;2023-05-12T03:05:12;93848.00;;;9.83;100.00
11345;BME280;5727;42.600;23.028;2023-05-12T03:07:38;93847.19;;;9.91;100.00
11345;BME280;5727;42.600;23.028;2023-05-12T03:10:07;93850.06;;;9.98;100.00
11345;BME280;5727;42.600;23.028;2023-05-12T03:12:34;93863.06;;;9.86;100.00
11345;BME280;5727;42.600;23.028;2023-05-12T03:15:01;93855.75;;;9.71;100.00
11345;BME280;5727;42.600;23.028;2023-05-12T03:17:28;93860.88;;;9.59;100.00
11345;BME280;5727;42.600;23.028;2023-05-12T03:19:55;93853.53;;;9.52;100.00
11345;BME280;5727;42.600;23.028;2023-05-12T03:22:22;93858.66;;;9.40;100.00
11345;BME280;5727;42.600;23.028;2023-05-12T03:24:49;93863.88;;;9.40;100.00
11345;BME280;5727;42.600;23.028;2023-05-12T03:27:17;93851.69;;;9.06;100.00
11345;BME280;5727;42.600;23.028;2023-05-12T03:29:44;93862.16;;;9.06;100.00
11345;BME280;5727;42.600;23.028;2023-05-12T03:32:11;93855.97;;;9.19;100.00
11345;BME280;5727;42.600;23.028;2023-05-12T03:34:38;93873.81;;;9.09;100.00
11345;BME280;5727;42.600;23.028;2023-05-12T03:37:04;93864.31;;;9.04;100.00
11345;BME280;5727;42.600;23.028;2023-05-12T03:39:31;93856.00;;;9.02;100.00
11345;BME280;5727;42.600;23.028;2023-05-12T03:41:58;93862.16;;;9.06;100.00
11345;BME280;5727;42.600;23.028;2023-05-12T03:44:26;93858.44;;;9.07;100.00
11345;BME280;5727;42.600;23.028;2023-05-12T03:46:52;93863.75;;;9.28;100.00
11345;BME280;5727;42.600;23.028;2023-05-12T03:49:19;93862.66;;;9.38;100.00
11345;BME280;5727;42.600;23.028;2023-05-12T03:51:46;93873.09;;;9.46;100.00
11345;BME280;5727;42.600;23.028;2023-05-12T03:54:12;93874.31;;;9.49;100.00
11345;BME280;5727;42.600;23.028;2023-05-12T03:56:39;93873.66;;;9.60;100.00
11345;BME280;5727;42.600;23.028;2023-05-12T03:59:06;93873.47;;;9.65;100.00
11345;BME280;5727;42.600;23.028;2023-05-12T04:01:34;93877.13;;;9.73;100.00
11345;BME280;5727;42.600;23.028;2023-05-12T04:04:01;93882.63;;;9.80;100.00
11345;BME280;5727;42.600;23.028;2023-05-12T04:06:27;93882.00;;;9.45;100.00
11345;BME280;5727;42.600;23.028;2023-05-12T04:08:55;93887.13;;;9.33;100.00
11345;BME280;5727;42.600;23.028;2023-05-12T04:11:22;93879.25;;;9.42;100.00
11345;BME280;5727;42.600;23.028;2023-05-12T04:13:49;93889.38;;;9.52;100.00
11345;BME280;5727;42.600;23.028;2023-05-12T04:16:15;93889.06;;;9.53;100.00
11345;BME280;5727;42.600;23.028;2023-05-12T04:18:43;93896.16;;;9.44;100.00
11345;BME280;5727;42.600;23.028;2023-05-12T04:21:10;93890.47;;;9.51;100.00
11345;BME280;5727;42.600;23.028;2023-05-12T04:23:37;93897.88;;;9.40;100.00
11345;BME280;5727;42.600;23.028;2023-05-12T04:26:04;93895.97;;;9.11;100.00
11345;BME280;5727;42.600;23.028;2023-05-12T04:28:31;93891.81;;;9.10;100.00
11345;BME280;5727;42.600;23.028;2023-05-12T04:31:01;93890.13;;;9.06;100.00
11345;BME280;5727;42.600;23.028;2023-05-12T04:33:28;93890.91;;;9.06;100.00
11345;BME280;5727;42.600;23.028;2023-05-12T04:35:56;93895.50;;;9.09;100.00
11345;BME280;5727;42.600;23.028;2023-05-12T04:38:23;93892.72;;;9.14;100.00
11345;BME280;5727;42.600;23.028;2023-05-12T04:40:50;93887.94;;;9.16;100.00
11345;BME280;5727;42.600;23.028;2023-05-12T04:43:17;93896.09;;;9.15;100.00
11345;BME280;5727;42.600;23.028;2023-05-12T04:45:43;93893.19;;;8.99;100.00
11345;BME280;5727;42.600;23.028;2023-05-12T04:48:10;93899.97;;;8.92;100.00
11345;BME280;5727;42.600;23.028;2023-05-12T04:50:37;93897.22;;;8.88;100.00
11345;BME280;5727;42.600;23.028;2023-05-12T04:53:05;93895.97;;;9.03;100.00
11345;BME280;5727;42.600;23.028;2023-05-12T04:55:31;93891.38;;;9.08;100.00
11345;BME280;5727;42.600;23.028;2023-05-12T04:57:58;93902.09;;;9.15;100.00
11345;BME280;5727;42.600;23.028;2023-05-12T05:00:25;93899.66;;;9.10;100.00
11345;BME280;5727;42.600;23.028;2023-05-12T05:02:52;93898.56;;;9.03;100.00
11345;BME280;5727;42.600;23.028;2023-05-12T05:05:18;93903.66;;;8.99;100.00
11345;BME280;5727;42.600;23.028;2023-05-12T05:07:45;93905.66;;;9.02;100.00
11345;BME280;5727;42.600;23.028;2023-05-12T05:10:13;93905.22;;;9.00;100.00
11345;BME280;5727;42.600;23.028;2023-05-12T05:12:40;93912.38;;;9.20;100.00
11345;BME280;5727;42.600;23.028;2023-05-12T05:15:08;93904.34;;;9.34;100.00
11345;BME280;5727;42.600;23.028;2023-05-12T05:17:35;93908.31;;;9.49;100.00
11345;BME280;5727;42.600;23.028;2023-05-12T05:20:03;93902.91;;;9.54;100.00
11345;BME280;5727;42.600;23.028;2023-05-12T05:22:29;93906.25;;;9.63;100.00
11345;BME280;5727;42.600;23.028;2023-05-12T05:24:56;93910.81;;;9.74;100.00
11345;BME280;5727;42.600;23.028;2023-05-12T05:27:24;93908.78;;;9.80;100.00
11345;BME280;5727;42.600;23.028;2023-05-12T05:29:51;93900.59;;;9.90;100.00
11345;BME280;5727;42.600;23.028;2023-05-12T05:32:18;93907.97;;;9.96;100.00
11345;BME280;5727;42.600;23.028;2023-05-12T05:34:45;93911.41;;;10.09;100.00
11345;BME280;5727;42.600;23.028;2023-05-12T05:37:12;93909.41;;;10.14;100.00
11345;BME280;5727;42.600;23.028;2023-05-12T05:39:39;93912.81;;;10.15;100.00
11345;BME280;5727;42.600;23.028;2023-05-12T05:42:06;93916.06;;;10.12;100.00
11345;BME280;5727;42.600;23.028;2023-05-12T05:44:34;93918.03;;;10.15;100.00
11345;BME280;5727;42.600;23.028;2023-05-12T05:47:00;93924.63;;;10.21;100.00
11345;BME280;5727;42.600;23.028;2023-05-12T05:49:28;93924.94;;;10.20;100.00
11345;BME280;5727;42.600;23.028;2023-05-12T05:51:54;93927.13;;;10.18;100.00
11345;BME280;5727;42.600;23.028;2023-05-12T05:54:22;93923.69;;;9.88;100.00
11345;BME280;5727;42.600;23.028;2023-05-12T05:56:49;93926.97;;;9.76;100.00
11345;BME280;5727;42.600;23.028;2023-05-12T05:59:15;93918.84;;;9.69;100.00
11345;BME280;5727;42.600;23.028;2023-05-12T06:01:43;93924.22;;;9.73;100.00
11345;BME280;5727;42.600;23.028;2023-05-12T06:04:10;93917.91;;;9.74;100.00
11345;BME280;5727;42.600;23.028;2023-05-12T06:06:37;93934.38;;;9.74;100.00
11345;BME280;5727;42.600;23.028;2023-05-12T06:09:04;93934.53;;;9.69;100.00
11345;BME280;5727;42.600;23.028;2023-05-12T06:11:31;93940.50;;;9.41;100.00
11345;BME280;5727;42.600;23.028;2023-05-12T06:13:58;93933.16;;;9.26;100.00
11345;BME280;5727;42.600;23.028;2023-05-12T06:16:24;93935.16;;;9.20;100.00
11345;BME280;5727;42.600;23.028;2023-05-12T06:18:52;93934.53;;;9.23;100.00
11345;BME280;5727;42.600;23.028;2023-05-12T06:21:19;93939.00;;;9.14;100.00
11345;BME280;5727;42.600;23.028;2023-05-12T06:23:46;93939.94;;;9.01;100.00
11345;BME280;5727;42.600;23.028;2023-05-12T06:26:13;93940.25;;;9.08;100.00
11345;BME280;5727;42.600;23.028;2023-05-12T06:28:40;93947.47;;;9.02;100.00
11345;BME280;5727;42.600;23.028;2023-05-12T06:31:07;93943.63;;;8.91;100.00
11345;BME280;5727;42.600;23.028;2023-05-12T06:33:34;93951.47;;;9.08;100.00
11345;BME280;5727;42.600;23.028;2023-05-12T06:36:02;93951.16;;;9.10;100.00
11345;BME280;5727;42.600;23.028;2023-05-12T06:38:29;93951.31;;;9.13;100.00
11345;BME280;5727;42.600;23.028;2023-05-12T06:40:56;93948.41;;;9.06;100.00
11345;BME280;5727;42.600;23.028;2023-05-12T06:43:22;93947.59;;;9.14;100.00
11345;BME280;5727;42.600;23.028;2023-05-12T06:45:49;93954.19;;;9.20;100.00
11345;BME280;5727;42.600;23.028;2023-05-12T06:48:16;93957.88;;;9.37;100.00
11345;BME280;5727;42.600;23.028;2023-05-12T06:50:44;93949.72;;;9.47;100.00
11345;BME280;5727;42.600;23.028;2023-05-12T06:53:12;93957.50;;;9.64;100.00
11345;BME280;5727;42.600;23.028;2023-05-12T06:55:38;93954.25;;;9.67;100.00
11345;BME280;5727;42.600;23.028;2023-05-12T06:58:07;93953.13;;;9.76;100.00
11345;BME280;5727;42.600;23.028;2023-05-12T07:00:34;93953.13;;;9.85;100.00
11345;BME280;5727;42.600;23.028;2023-05-12T07:03:01;93952.47;;;9.88;100.00
11345;BME280;5727;42.600;23.028;2023-05-12T07:05:27;93948.00;;;9.97;100.00
11345;BME280;5727;42.600;23.028;2023-05-12T07:07:54;93949.91;;;10.08;100.00
11345;BME280;5727;42.600;23.028;2023-05-12T07:10:22;93953.16;;;10.14;100.00
11345;BME280;5727;42.600;23.028;2023-05-12T07:12:49;93955.34;;;10.12;100.00
11345;BME280;5727;42.600;23.028;2023-05-12T07:15:15;93946.50;;;10.17;100.00
11345;BME280;5727;42.600;23.028;2023-05-12T07:17:42;93962.88;;;10.13;100.00
11345;BME280;5727;42.600;23.028;2023-05-12T07:20:09;93954.34;;;10.25;100.00
11345;BME280;5727;42.600;23.028;2023-05-12T07:22:36;93955.84;;;10.26;100.00
11345;BME280;5727;42.600;23.028;2023-05-12T07:25:03;93957.53;;;10.31;100.00
11345;BME280;5727;42.600;23.028;2023-05-12T07:27:32;93943.31;;;10.40;100.00
11345;BME280;5727;42.600;23.028;2023-05-12T07:29:59;93946.91;;;10.56;100.00
11345;BME280;5727;42.600;23.028;2023-05-12T07:32:26;93949.41;;;10.73;100.00
11345;BME280;5727;42.600;23.028;2023-05-12T07:34:52;93946.31;;;10.92;100.00
11345;BME280;5727;42.600;23.028;2023-05-12T07:37:19;93940.81;;;11.05;100.00
11345;BME280;5727;42.600;23.028;2023-05-12T07:39:46;93945.53;;;11.12;100.00
11345;BME280;5727;42.600;23.028;2023-05-12T07:42:12;93942.91;;;11.12;100.00
11345;BME280;5727;42.600;23.028;2023-05-12T07:44:41;93943.59;;;11.21;100.00
11345;BME280;5727;42.600;23.028;2023-05-12T07:47:08;93944.59;;;11.29;100.00
11345;BME280;5727;42.600;23.028;2023-05-12T07:49:35;93946.06;;;11.38;100.00
11345;BME280;5727;42.600;23.028;2023-05-12T07:52:02;93943.44;;;11.38;100.00
11345;BME280;5727;42.600;23.028;2023-05-12T07:54:29;93938.75;;;11.11;100.00
11345;BME280;5727;42.600;23.028;2023-05-12T07:56:56;93938.25;;;11.18;100.00
11345;BME280;5727;42.600;23.028;2023-05-12T07:59:23;93940.88;;;11.30;100.00
11345;BME280;5727;42.600;23.028;2023-05-12T08:01:51;93940.66;;;11.23;100.00
11345;BME280;5727;42.600;23.028;2023-05-12T08:04:17;93949.91;;;11.08;100.00
11345;BME280;5727;42.600;23.028;2023-05-12T08:06:44;93947.78;;;11.01;100.00
11345;BME280;5727;42.600;23.028;2023-05-12T08:09:11;93939.16;;;11.01;100.00
11345;BME280;5727;42.600;23.028;2023-05-12T08:11:37;93944.28;;;10.97;100.00
11345;BME280;5727;42.600;23.028;2023-05-12T08:14:04;93941.25;;;11.07;100.00
11345;BME280;5727;42.600;23.028;2023-05-12T08:16:31;93942.16;;;11.12;100.00
11345;BME280;5727;42.600;23.028;2023-05-12T08:18:59;93929.59;;;11.17;100.00
11345;BME280;5727;42.600;23.028;2023-05-12T08:21:26;93939.72;;;11.39;100.00
11345;BME280;5727;42.600;23.028;2023-05-12T08:23:53;93945.09;;;11.43;100.00
11345;BME280;5727;42.600;23.028;2023-05-12T08:26:20;93941.16;;;11.49;100.00
11345;BME280;5727;42.600;23.028;2023-05-12T08:28:47;93949.06;;;11.61;100.00
11345;BME280;5727;42.600;23.028;2023-05-12T08:31:13;93944.16;;;11.27;100.00
11345;BME280;5727;42.600;23.028;2023-05-12T08:33:40;93946.44;;;10.95;100.00
11345;BME280;5727;42.600;23.028;2023-05-12T08:36:08;93945.00;;;11.19;100.00
11345;BME280;5727;42.600;23.028;2023-05-12T08:38:35;93938.13;;;11.14;100.00
11345;BME280;5727;42.600;23.028;2023-05-12T08:41:10;93944.59;;;11.29;100.00
11345;BME280;5727;42.600;23.028;2023-05-12T08:43:42;93942.94;;;11.24;100.00
11345;BME280;5727;42.600;23.028;2023-05-12T08:46:10;93943.66;;;11.13;100.00
11345;BME280;5727;42.600;23.028;2023-05-12T08:48:38;93939.72;;;11.06;100.00
11345;BME280;5727;42.600;23.028;2023-05-12T08:51:06;93934.28;;;11.12;100.00
11345;BME280;5727;42.600;23.028;2023-05-12T08:53:36;93931.56;;;11.20;100.00
11345;BME280;5727;42.600;23.028;2023-05-12T08:56:05;93943.94;;;11.32;100.00
11345;BME280;5727;42.600;23.028;2023-05-12T08:58:32;93939.41;;;11.53;100.00
11345;BME280;5727;42.600;23.028;2023-05-12T09:00:59;93941.88;;;11.70;100.00
11345;BME280;5727;42.600;23.028;2023-05-12T09:03:29;93937.09;;;11.84;100.00
11345;BME280;5727;42.600;23.028;2023-05-12T09:05:57;93938.72;;;11.76;100.00
11345;BME280;5727;42.600;23.028;2023-05-12T09:08:25;93942.53;;;11.67;100.00
11345;BME280;5727;42.600;23.028;2023-05-12T09:10:55;93940.06;;;11.50;100.00
11345;BME280;5727;42.600;23.028;2023-05-12T09:13:27;93939.16;;;11.34;100.00
11345;BME280;5727;42.600;23.028;2023-05-12T09:15:55;93941.84;;;11.58;100.00
11345;BME280;5727;42.600;23.028;2023-05-12T09:18:31;93937.63;;;11.65;100.00
11345;BME280;5727;42.600;23.028;2023-05-12T09:21:09;93935.13;;;11.69;100.00
11345;BME280;5727;42.600;23.028;2023-05-12T09:23:36;93936.00;;;11.85;100.00
11345;BME280;5727;42.600;23.028;2023-05-12T09:26:04;93941.91;;;11.94;100.00
11345;BME280;5727;42.600;23.028;2023-05-12T09:28:35;93939.94;;;11.91;100.00
11345;BME280;5727;42.600;23.028;2023-05-12T09:31:13;93940.50;;;11.84;100.00
11345;BME280;5727;42.600;23.028;2023-05-12T09:33:40;93940.13;;;11.74;100.00
11345;BME280;5727;42.600;23.028;2023-05-12T09:36:07;93936.53;;;11.66;100.00
11345;BME280;5727;42.600;23.028;2023-05-12T09:38:34;93947.72;;;11.75;100.00
11345;BME280;5727;42.600;23.028;2023-05-12T09:41:00;93939.78;;;11.63;100.00
11345;BME280;5727;42.600;23.028;2023-05-12T09:43:29;93954.16;;;11.78;100.00
11345;BME280;5727;42.600;23.028;2023-05-12T09:45:55;93946.94;;;11.99;100.00
11345;BME280;5727;42.600;23.028;2023-05-12T09:48:22;93943.56;;;12.11;100.00
11345;BME280;5727;42.600;23.028;2023-05-12T09:50:50;93938.94;;;11.83;100.00
11345;BME280;5727;42.600;23.028;2023-05-12T09:53:18;93949.59;;;11.87;100.00
11345;BME280;5727;42.600;23.028;2023-05-12T09:55:47;93952.09;;;11.95;100.00
11345;BME280;5727;42.600;23.028;2023-05-12T09:58:16;93952.72;;;11.68;100.00
11345;BME280;5727;42.600;23.028;2023-05-12T10:00:45;93937.91;;;11.52;100.00
11345;BME280;5727;42.600;23.028;2023-05-12T10:03:13;93946.16;;;11.74;100.00
11345;BME280;5727;42.600;23.028;2023-05-12T10:05:47;93935.13;;;11.81;100.00
11345;BME280;5727;42.600;23.028;2023-05-12T10:08:19;93943.47;;;11.62;100.00
11345;BME280;5727;42.600;23.028;2023-05-12T10:10:47;93945.81;;;11.64;100.00
11345;BME280;5727;42.600;23.028;2023-05-12T10:13:16;93942.91;;;11.45;100.00
11345;BME280;5727;42.600;23.028;2023-05-12T10:15:45;93948.78;;;11.42;100.00
11345;BME280;5727;42.600;23.028;2023-05-12T10:18:13;93950.16;;;11.60;100.00
11345;BME280;5727;42.600;23.028;2023-05-12T10:20:43;93940.56;;;11.64;100.00
11345;BME280;5727;42.600;23.028;2023-05-12T10:23:11;93943.19;;;11.64;100.00
11345;BME280;5727;42.600;23.028;2023-05-12T10:25:40;93947.72;;;11.75;100.00
11345;BME280;5727;42.600;23.028;2023-05-12T10:28:07;93943.75;;;11.69;100.00
11345;BME280;5727;42.600;23.028;2023-05-12T10:30:34;93944.59;;;11.61;100.00
11345;BME280;5727;42.600;23.028;2023-05-12T10:33:03;93945.38;;;11.74;100.00
11345;BME280;5727;42.600;23.028;2023-05-12T10:35:34;93933.84;;;11.87;100.00
11345;BME280;5727;42.600;23.028;2023-05-12T10:38:04;93939.75;;;11.96;100.00
11345;BME280;5727;42.600;23.028;2023-05-12T10:40:31;93941.06;;;12.02;100.00
11345;BME280;5727;42.600;23.028;2023-05-12T10:42:58;93931.19;;;11.99;100.00
11345;BME280;5727;42.600;23.028;2023-05-12T10:45:26;93939.97;;;12.15;100.00
11345;BME280;5727;42.600;23.028;2023-05-12T10:48:05;93942.13;;;12.37;100.00
11345;BME280;5727;42.600;23.028;2023-05-12T10:50:32;93941.81;;;12.27;100.00
11345;BME280;5727;42.600;23.028;2023-05-12T10:52:59;93935.44;;;12.40;100.00
11345;BME280;5727;42.600;23.028;2023-05-12T10:55:30;93936.88;;;12.37;100.00
11345;BME280;5727;42.600;23.028;2023-05-12T10:58:05;93948.81;;;12.35;100.00
11345;BME280;5727;42.600;23.028;2023-05-12T11:00:42;93937.44;;;12.43;100.00
11345;BME280;5727;42.600;23.028;2023-05-12T11:03:13;93941.34;;;12.49;100.00
11345;BME280;5727;42.600;23.028;2023-05-12T11:05:41;93939.63;;;12.41;100.00
11345;BME280;5727;42.600;23.028;2023-05-12T11:08:09;93943.66;;;12.38;100.00
11345;BME280;5727;42.600;23.028;2023-05-12T11:10:35;93952.19;;;12.47;100.00
11345;BME280;5727;42.600;23.028;2023-05-12T11:13:02;93943.16;;;12.72;100.00
11345;BME280;5727;42.600;23.028;2023-05-12T11:15:29;93947.69;;;13.12;100.00
11345;BME280;5727;42.600;23.028;2023-05-12T11:17:56;93942.88;;;13.14;100.00
11345;BME280;5727;42.600;23.028;2023-05-12T11:20:25;93940.53;;;13.12;100.00
11345;BME280;5727;42.600;23.028;2023-05-12T11:22:52;93941.75;;;13.42;100.00
11345;BME280;5727;42.600;23.028;2023-05-12T11:25:19;93941.16;;;13.64;100.00
11345;BME280;5727;42.600;23.028;2023-05-12T11:27:46;93947.31;;;13.84;100.00
11345;BME280;5727;42.600;23.028;2023-05-12T11:30:13;93951.47;;;14.47;100.00
11345;BME280;5727;42.600;23.028;2023-05-12T11:32:40;93959.31;;;14.44;100.00
11345;BME280;5727;42.600;23.028;2023-05-12T11:35:09;93961.72;;;14.68;100.00
11345;BME280;5727;42.600;23.028;2023-05-12T11:37:38;93955.56;;;14.99;100.00
11345;BME280;5727;42.600;23.028;2023-05-12T11:40:16;93958.97;;;14.80;100.00
11345;BME280;5727;42.600;23.028;2023-05-12T11:42:44;93960.16;;;14.83;100.00
11345;BME280;5727;42.600;23.028;2023-05-12T11:45:23;93958.50;;;14.94;100.00
11345;BME280;5727;42.600;23.028;2023-05-12T11:47:51;93954.53;;;14.84;100.00
11345;BME280;5727;42.600;23.028;2023-05-12T11:50:22;93958.56;;;14.62;100.00
11345;BME280;5727;42.600;23.028;2023-05-12T11:52:51;93953.75;;;14.49;100.00
11345;BME280;5727;42.600;23.028;2023-05-12T11:55:20;93947.75;;;14.17;100.00
11345;BME280;5727;42.600;23.028;2023-05-12T11:57:57;93941.28;;;13.99;100.00
11345;BME280;5727;42.600;23.028;2023-05-12T12:00:29;93949.25;;;13.87;100.00
11345;BME280;5727;42.600;23.028;2023-05-12T12:03:09;93953.69;;;13.99;100.00
11345;BME280;5727;42.600;23.028;2023-05-12T12:05:37;93955.47;;;13.95;100.00
11345;BME280;5727;42.600;23.028;2023-05-12T12:08:07;93953.09;;;13.90;100.00
11345;BME280;5727;42.600;23.028;2023-05-12T12:10:33;93958.19;;;13.98;100.00
11345;BME280;5727;42.600;23.028;2023-05-12T12:13:00;93954.28;;;13.92;100.00
11345;BME280;5727;42.600;23.028;2023-05-12T12:15:27;93954.94;;;14.20;100.00
11345;BME280;5727;42.600;23.028;2023-05-12T12:17:54;93948.16;;;14.19;100.00
11345;BME280;5727;42.600;23.028;2023-05-12T12:20:21;93945.03;;;14.29;100.00
11345;BME280;5727;42.600;23.028;2023-05-12T12:22:49;93947.03;;;14.20;100.00
11345;BME280;5727;42.600;23.028;2023-05-12T12:25:20;93939.22;;;14.08;100.00
11345;BME280;5727;42.600;23.028;2023-05-12T12:27:47;93931.59;;;14.03;100.00
11345;BME280;5727;42.600;23.028;2023-05-12T12:30:14;93941.44;;;14.22;100.00
11345;BME280;5727;42.600;23.028;2023-05-12T12:32:43;93940.06;;;14.43;100.00
11345;BME280;5727;42.600;23.028;2023-05-12T12:35:10;93937.91;;;14.64;100.00
11345;BME280;5727;42.600;23.028;2023-05-12T12:37:38;93942.75;;;14.62;100.00
11345;BME280;5727;42.600;23.028;2023-05-12T12:40:05;93936.47;;;14.86;100.00
11345;BME280;5727;42.600;23.028;2023-05-12T12:42:36;93938.84;;;15.10;100.00
11345;BME280;5727;42.600;23.028;2023-05-12T12:45:05;93938.50;;;15.31;100.00
11345;BME280;5727;42.600;23.028;2023-05-12T12:47:35;93929.53;;;15.54;100.00
11345;BME280;5727;42.600;23.028;2023-05-12T12:50:03;93932.59;;;15.79;100.00
11345;BME280;5727;42.600;23.028;2023-05-12T12:52:30;93921.28;;;16.01;100.00
11345;BME280;5727;42.600;23.028;2023-05-12T12:54:57;93913.25;;;16.20;100.00
11345;BME280;5727;42.600;23.028;2023-05-12T12:57:24;93923.19;;;16.50;100.00